createdAt,value
2023-01-22T00:01:22.855Z,8.70
2023-01-22T00:03:52.518Z,8.60
2023-01-22T00:06:21.234Z,7.40
2023-01-22T00:08:50.217Z,8.90
2023-01-22T00:11:19.411Z,9.80
2023-01-22T00:13:47.315Z,9.30
2023-01-22T00:16:16.542Z,8.60
2023-01-22T00:18:44.619Z,7.70
2023-01-22T00:21:13.571Z,7.60
2023-01-22T00:23:41.721Z,7.60
2023-01-22T00:26:13.485Z,6.70
2023-01-22T00:28:42.449Z,7.20
2023-01-22T00:31:11.099Z,7.60
2023-01-22T00:33:40.105Z,7.20
2023-01-22T00:36:09.082Z,7.40
2023-01-22T00:38:37.121Z,7.70
2023-01-22T00:41:06.278Z,7.60
2023-01-22T00:43:35.251Z,8.20
2023-01-22T00:46:03.340Z,7.60
2023-01-22T00:48:31.353Z,8.90
2023-01-22T00:50:59.275Z,8.70
2023-01-22T00:53:27.099Z,8.30
2023-01-22T00:55:59.912Z,8.20
2023-01-22T00:58:28.396Z,7.30
2023-01-22T01:00:56.609Z,8.10
2023-01-22T01:03:27.499Z,7.80
2023-01-22T01:05:55.966Z,8.40
2023-01-22T01:08:24.494Z,8.20
2023-01-22T01:10:56.414Z,7.90
2023-01-22T01:13:24.354Z,8.10
2023-01-22T01:15:58.976Z,8.00
2023-01-22T01:18:26.867Z,7.90
2023-01-22T01:20:58.580Z,9.30
2023-01-22T01:23:27.742Z,8.60
2023-01-22T01:25:55.700Z,8.40
2023-01-22T01:28:24.950Z,8.40
2023-01-22T01:30:54.865Z,8.70
2023-01-22T01:33:23.519Z,7.90
2023-01-22T01:35:58.718Z,8.70
2023-01-22T01:38:26.990Z,8.50
2023-01-22T01:40:54.983Z,9.20
2023-01-22T01:43:23.363Z,8.60
2023-01-22T01:45:51.302Z,9.40
2023-01-22T01:48:24.759Z,8.50
2023-01-22T01:51:12.904Z,8.30
2023-01-22T01:53:41.562Z,9.10
2023-01-22T01:56:12.460Z,8.90
2023-01-22T01:58:41.904Z,9.50
2023-01-22T02:01:14.566Z,9.90
2023-01-22T02:03:43.244Z,10.00
2023-01-22T02:06:11.931Z,10.10
2023-01-22T02:08:40.643Z,10.20
2023-01-22T02:11:09.192Z,10.90
2023-01-22T02:13:39.645Z,11.40
2023-01-22T02:16:10.387Z,10.60
2023-01-22T02:18:38.896Z,11.60
2023-01-22T02:21:26.734Z,11.30
2023-01-22T02:23:54.827Z,10.50
2023-01-22T02:26:25.849Z,12.20
2023-01-22T02:28:53.700Z,11.40
2023-01-22T02:31:21.531Z,11.40
2023-01-22T02:33:50.438Z,10.10
2023-01-22T02:36:18.498Z,11.90
2023-01-22T02:38:46.499Z,12.40
2023-01-22T02:41:15.307Z,12.30
2023-01-22T02:43:43.206Z,10.20
2023-01-22T02:46:11.038Z,12.40
2023-01-22T02:48:38.811Z,11.20
2023-01-22T02:51:07.080Z,11.70
2023-01-22T02:53:35.177Z,12.50
2023-01-22T02:56:07.007Z,11.40
2023-01-22T02:58:35.344Z,12.60
2023-01-22T03:01:20.704Z,13.40
2023-01-22T03:03:53.573Z,12.70
2023-01-22T03:06:22.649Z,13.10
2023-01-22T03:08:54.705Z,13.30
2023-01-22T03:11:25.572Z,12.10
2023-01-22T03:14:12.230Z,13.20
2023-01-22T03:16:59.644Z,13.10
2023-01-22T03:19:46.804Z,13.50
2023-01-22T03:22:16.230Z,13.60
2023-01-22T03:24:44.834Z,13.90
2023-01-22T03:27:12.792Z,13.90
2023-01-22T03:29:40.564Z,13.90
2023-01-22T03:32:08.710Z,12.30
2023-01-22T03:34:37.168Z,13.00
2023-01-22T03:37:10.012Z,12.90
2023-01-22T03:39:38.009Z,12.70
2023-01-22T03:42:06.767Z,12.40
2023-01-22T03:44:37.741Z,12.90
2023-01-22T03:47:05.738Z,15.00
2023-01-22T03:49:36.199Z,13.20
2023-01-22T03:52:04.059Z,12.00
2023-01-22T03:54:35.957Z,12.80
2023-01-22T03:57:19.944Z,13.60
2023-01-22T03:59:48.344Z,11.50
2023-01-22T04:02:16.568Z,13.80
2023-01-22T04:04:44.927Z,11.60
2023-01-22T04:07:12.985Z,12.40
2023-01-22T04:09:40.944Z,12.30
2023-01-22T04:12:08.815Z,12.70
2023-01-22T04:14:36.690Z,11.30
2023-01-22T04:17:04.872Z,10.80
2023-01-22T04:19:34.800Z,12.20
2023-01-22T04:22:04.927Z,11.50
2023-01-22T04:24:32.870Z,11.50
2023-01-22T04:27:00.621Z,11.40
2023-01-22T04:38:33.755Z,11.40
2023-01-22T04:41:00.320Z,11.70
2023-01-22T04:43:26.833Z,12.10
2023-01-22T04:45:53.462Z,10.60
2023-01-22T04:48:20.255Z,11.70
2023-01-22T04:50:46.874Z,11.50
2023-01-22T04:53:13.478Z,10.50
2023-01-22T04:55:41.446Z,11.60
2023-01-22T04:58:08.642Z,10.70
2023-01-22T05:06:44.576Z,10.70
2023-01-22T05:09:12.573Z,12.20
2023-01-22T05:11:40.764Z,10.10
2023-01-22T05:14:10.497Z,10.00
2023-01-22T05:16:38.777Z,10.10
2023-01-22T05:19:06.576Z,11.20
2023-01-22T05:21:34.772Z,13.50
2023-01-22T05:24:06.670Z,12.50
2023-01-22T05:26:36.248Z,13.50
2023-01-22T05:29:06.973Z,12.30
2023-01-22T05:31:35.069Z,12.40
2023-01-22T05:34:06.369Z,12.70
2023-01-22T05:36:34.210Z,12.40
2023-01-22T05:39:02.170Z,13.50
2023-01-22T05:41:29.996Z,13.20
2023-01-22T05:43:58.061Z,14.30
2023-01-22T05:46:25.974Z,11.70
2023-01-22T05:48:54.020Z,12.50
2023-01-22T05:51:22.218Z,13.30
2023-01-22T05:53:50.084Z,13.40
2023-01-22T05:56:17.981Z,12.70
2023-01-22T05:58:45.925Z,13.20
2023-01-22T06:01:13.803Z,14.80
2023-01-22T06:03:41.891Z,15.30
2023-01-22T06:06:13.467Z,15.00
2023-01-22T06:08:41.444Z,14.70
2023-01-22T06:11:13.711Z,13.60
2023-01-22T06:13:46.075Z,14.00
2023-01-22T06:16:15.487Z,16.00
2023-01-22T06:18:43.603Z,14.70
2023-01-22T06:21:11.539Z,12.50
2023-01-22T06:23:40.066Z,12.80
2023-01-22T06:26:08.189Z,13.20
2023-01-22T06:28:36.195Z,14.60
2023-01-22T06:31:07.945Z,13.20
2023-01-22T06:33:36.945Z,13.70
2023-01-22T06:36:05.471Z,12.90
2023-01-22T06:38:33.596Z,14.40
2023-01-22T06:41:01.826Z,13.90
2023-01-22T06:43:30.030Z,13.50
2023-01-22T06:45:57.934Z,12.50
2023-01-22T06:48:25.844Z,14.10
2023-01-22T06:50:57.195Z,12.40
2023-01-22T06:53:25.667Z,13.40
2023-01-22T06:55:53.510Z,14.50
2023-01-22T06:58:21.821Z,13.20
2023-01-22T07:00:49.758Z,14.70
2023-01-22T07:03:17.667Z,14.70
2023-01-22T07:05:45.585Z,13.10
2023-01-22T07:08:15.632Z,14.40
2023-01-22T07:10:43.501Z,13.70
2023-01-22T07:13:11.422Z,11.90
2023-01-22T07:15:39.295Z,12.60
2023-01-22T07:18:07.239Z,12.00
2023-01-22T07:20:35.071Z,13.40
2023-01-22T07:23:02.807Z,13.20
2023-01-22T07:25:30.700Z,13.40
2023-01-22T07:28:01.028Z,12.70
2023-01-22T07:30:29.332Z,13.60
2023-01-22T07:33:01.031Z,14.10
2023-01-22T07:35:29.335Z,14.20
2023-01-22T07:38:00.332Z,15.30
2023-01-22T07:40:30.521Z,15.80
2023-01-22T07:42:58.463Z,14.70
2023-01-22T07:45:26.503Z,15.80
2023-01-22T07:47:58.887Z,16.70
2023-01-22T07:50:28.280Z,16.10
2023-01-22T07:52:56.347Z,16.50
2023-01-22T07:55:24.240Z,15.60
2023-01-22T07:58:02.424Z,17.10
2023-01-22T08:00:31.034Z,17.10
2023-01-22T08:02:58.956Z,20.50
2023-01-22T08:05:26.863Z,19.10
2023-01-22T08:07:55.005Z,17.50
2023-01-22T08:10:23.087Z,19.60
2023-01-22T08:12:50.998Z,18.80
2023-01-22T08:15:18.847Z,17.50
2023-01-22T08:17:48.752Z,16.60
2023-01-22T08:20:17.636Z,17.80
2023-01-22T08:22:45.847Z,19.90
2023-01-22T08:25:13.837Z,19.30
2023-01-22T08:27:41.600Z,19.00
2023-01-22T08:30:11.520Z,22.70
2023-01-22T08:32:41.470Z,19.10
2023-01-22T08:35:11.935Z,17.80
2023-01-22T08:37:43.962Z,20.70
2023-01-22T08:40:12.603Z,20.50
2023-01-22T08:42:40.999Z,22.20
2023-01-22T08:45:09.535Z,20.80
2023-01-22T08:47:37.612Z,21.20
2023-01-22T08:50:06.134Z,20.30
2023-01-22T08:52:34.255Z,19.90
2023-01-22T08:58:24.036Z,17.30
2023-01-22T09:00:57.935Z,17.40
2023-01-22T09:03:27.822Z,19.20
2023-01-22T09:05:59.798Z,19.00
2023-01-22T09:08:37.926Z,18.20
2023-01-22T09:11:07.128Z,18.40
2023-01-22T09:13:35.627Z,17.40
2023-01-22T09:16:06.447Z,17.70
2023-01-22T09:18:35.504Z,18.90
2023-01-22T09:21:04.746Z,18.10
2023-01-22T09:23:33.079Z,20.60
2023-01-22T09:26:01.541Z,17.60
2023-01-22T09:28:30.387Z,19.70
2023-01-22T09:30:58.839Z,18.70
2023-01-22T09:33:30.832Z,18.00
2023-01-22T09:36:15.248Z,18.60
2023-01-22T09:45:34.322Z,21.60
2023-01-22T09:48:38.311Z,21.10
2023-01-22T09:55:10.542Z,25.00
2023-01-22T09:57:47.094Z,26.10
2023-01-22T10:00:16.486Z,27.50
2023-01-22T10:07:00.794Z,27.90
2023-01-22T10:09:30.804Z,31.90
2023-01-22T10:11:59.510Z,31.40
2023-01-22T10:14:29.489Z,30.20
2023-01-22T10:16:59.512Z,31.00
2023-01-22T10:19:30.547Z,28.60
2023-01-22T10:22:05.263Z,28.50
2023-01-22T10:24:33.621Z,29.40
2023-01-22T10:27:10.288Z,29.40
2023-01-22T10:29:39.453Z,31.70
2023-01-22T10:32:18.181Z,31.70
2023-01-22T10:34:57.985Z,27.10
2023-01-22T10:37:26.141Z,26.00
2023-01-22T10:39:57.202Z,27.90
2023-01-22T10:42:26.666Z,25.80
2023-01-22T10:44:55.907Z,28.80
2023-01-22T10:47:27.652Z,28.60
2023-01-22T10:50:04.569Z,29.20
2023-01-22T10:52:41.851Z,33.90
2023-01-22T10:55:23.858Z,31.10
2023-01-22T10:58:02.985Z,31.90
2023-01-22T11:00:52.452Z,29.00
2023-01-22T11:03:23.999Z,31.80
2023-01-22T11:05:58.170Z,28.80
2023-01-22T11:08:31.081Z,26.20
2023-01-22T11:11:03.736Z,27.00
2023-01-22T11:13:32.300Z,28.30
2023-01-22T11:16:05.580Z,28.40
2023-01-22T11:18:39.997Z,31.20
2023-01-22T11:21:28.975Z,27.50
2023-01-22T11:24:09.460Z,26.90
2023-01-22T11:26:56.873Z,28.10
2023-01-22T11:29:31.810Z,27.00
2023-01-22T11:32:07.065Z,23.80
2023-01-22T11:34:38.512Z,27.30
2023-01-22T11:37:13.005Z,24.20
2023-01-22T11:39:44.779Z,23.80
2023-01-22T11:42:13.091Z,28.00
2023-01-22T11:45:20.833Z,28.30
2023-01-22T11:47:59.380Z,23.90
2023-01-22T11:50:33.702Z,24.20
2023-01-22T11:53:02.553Z,22.50
2023-01-22T11:55:39.884Z,27.10
2023-01-22T11:58:14.661Z,23.40
2023-01-22T12:00:46.141Z,21.00
2023-01-22T12:03:14.780Z,23.10
2023-01-22T12:05:55.327Z,22.20
2023-01-22T12:08:38.200Z,22.70
2023-01-22T12:11:32.323Z,25.00
2023-01-22T12:14:19.493Z,24.20
2023-01-22T12:16:59.986Z,24.50
2023-01-22T12:19:37.267Z,20.60
2023-01-22T12:22:24.078Z,21.30
2023-01-22T12:24:58.674Z,23.40
2023-01-22T12:27:37.033Z,22.60
2023-01-22T12:30:12.841Z,22.10
2023-01-22T12:32:42.582Z,23.50
2023-01-22T12:35:16.568Z,27.50
2023-01-22T12:38:07.771Z,28.60
2023-01-22T12:40:54.593Z,24.80
2023-01-22T12:43:41.478Z,26.50
2023-01-22T12:46:21.867Z,26.30
2023-01-22T12:48:49.763Z,22.80
2023-01-22T12:51:43.849Z,24.00
2023-01-22T12:54:21.009Z,21.40
2023-01-22T12:56:50.233Z,22.70
2023-01-22T12:59:30.397Z,23.40
2023-01-22T13:01:59.680Z,23.30
2023-01-22T13:04:28.936Z,26.50
2023-01-22T13:07:19.173Z,26.50
2023-01-22T13:09:47.869Z,24.60
2023-01-22T13:12:43.842Z,23.90
2023-01-22T13:15:17.304Z,25.30
2023-01-22T13:17:53.059Z,27.90
2023-01-22T13:20:33.938Z,24.70
2023-01-22T13:23:02.704Z,27.80
2023-01-22T13:25:32.501Z,27.70
2023-01-22T13:28:03.318Z,25.00
2023-01-22T13:30:32.571Z,25.70
2023-01-22T13:33:03.564Z,26.50
2023-01-22T13:35:34.715Z,27.30
2023-01-22T13:38:03.508Z,25.20
2023-01-22T13:40:42.671Z,26.90
2023-01-22T13:43:20.625Z,27.40
2023-01-22T13:45:50.312Z,27.10
2023-01-22T13:48:22.650Z,28.40
2023-01-22T13:50:55.346Z,28.20
2023-01-22T13:53:26.184Z,27.70
2023-01-22T13:56:04.210Z,25.80
2023-01-22T13:58:48.594Z,29.10
2023-01-22T14:01:35.005Z,31.80
2023-01-22T14:04:08.809Z,28.70
2023-01-22T14:06:49.931Z,28.90
2023-01-22T14:09:26.179Z,31.30
2023-01-22T14:11:55.450Z,31.00
2023-01-22T14:14:23.872Z,32.00
2023-01-22T14:16:53.968Z,35.80
2023-01-22T14:19:25.577Z,28.60
2023-01-22T14:21:54.629Z,29.50
2023-01-22T14:24:23.225Z,31.40
2023-01-22T14:26:52.049Z,34.30
2023-01-22T14:29:21.274Z,31.60
2023-01-22T14:31:50.373Z,31.90
2023-01-22T14:34:19.258Z,35.20
2023-01-22T14:36:50.066Z,37.00
2023-01-22T14:39:19.646Z,36.20
2023-01-22T14:41:51.948Z,33.50
2023-01-22T14:44:21.096Z,33.20
2023-01-22T14:46:51.815Z,36.10
2023-01-22T14:49:21.650Z,35.40
2023-01-22T14:51:53.139Z,34.20
2023-01-22T14:54:25.563Z,34.60
2023-01-22T14:56:56.473Z,35.10
2023-01-22T14:59:25.198Z,35.20
2023-01-22T15:01:53.974Z,35.60
2023-01-22T15:04:23.057Z,34.20
2023-01-22T15:06:52.529Z,35.10
2023-01-22T15:09:22.097Z,34.10
2023-01-22T15:11:51.082Z,36.80
2023-01-22T15:14:19.851Z,40.70
2023-01-22T15:16:48.573Z,36.10
2023-01-22T15:19:18.523Z,29.60
2023-01-22T15:21:47.633Z,31.00
2023-01-22T15:24:16.027Z,31.60
2023-01-22T15:26:44.832Z,34.40
2023-01-22T15:29:14.350Z,38.80
2023-01-22T15:31:43.164Z,34.40
2023-01-22T15:34:11.765Z,36.30
2023-01-22T15:36:40.061Z,36.20
2023-01-22T15:39:08.663Z,36.70
2023-01-22T15:41:37.965Z,36.00
2023-01-22T15:44:06.722Z,33.00
2023-01-22T15:46:36.343Z,35.00
2023-01-22T15:49:05.649Z,35.50
2023-01-22T15:51:35.747Z,34.40
2023-01-22T15:54:05.629Z,33.90
2023-01-22T15:56:39.329Z,35.50
2023-01-22T15:59:07.684Z,33.90
2023-01-22T16:01:36.029Z,37.40
2023-01-22T16:04:05.387Z,37.60
2023-01-22T16:06:34.509Z,34.90
2023-01-22T16:09:04.529Z,36.10
2023-01-22T16:11:33.131Z,33.70
2023-01-22T16:14:01.373Z,30.90
2023-01-22T16:16:31.782Z,34.30
2023-01-22T16:19:01.160Z,31.80
2023-01-22T16:21:30.043Z,32.90
2023-01-22T16:24:00.562Z,32.50
2023-01-22T16:26:31.790Z,28.40
2023-01-22T16:29:01.791Z,27.70
2023-01-22T16:31:33.038Z,33.50
2023-01-22T16:34:12.654Z,36.40
2023-01-22T16:36:41.927Z,40.20
2023-01-22T16:39:16.030Z,41.60
2023-01-22T16:41:46.806Z,42.50
2023-01-22T16:44:19.952Z,39.90
2023-01-22T16:46:49.853Z,38.90
2023-01-22T16:49:22.675Z,36.60
2023-01-22T16:51:55.500Z,34.80
2023-01-22T16:54:28.147Z,35.60
2023-01-22T16:56:58.152Z,32.80
2023-01-22T16:59:27.521Z,33.40
2023-01-22T17:01:58.674Z,32.40
2023-01-22T17:04:27.751Z,32.10
2023-01-22T17:06:57.405Z,28.80
2023-01-22T17:09:26.890Z,28.20
2023-01-22T17:11:56.499Z,27.30
2023-01-22T17:14:27.208Z,31.60
2023-01-22T17:16:56.314Z,33.70
2023-01-22T17:19:24.774Z,34.30
2023-01-22T17:21:59.761Z,29.60
2023-01-22T17:24:29.148Z,27.40
2023-01-22T17:27:02.734Z,28.10
2023-01-22T17:29:35.393Z,27.00
2023-01-22T17:32:04.635Z,28.80
2023-01-22T17:34:33.554Z,29.90
2023-01-22T17:37:04.784Z,30.80
2023-01-22T17:39:33.661Z,30.60
2023-01-22T17:42:02.248Z,28.90
2023-01-22T17:44:31.051Z,25.60
2023-01-22T17:47:02.640Z,26.10
2023-01-22T17:49:33.502Z,30.90
2023-01-22T17:52:02.703Z,31.30
2023-01-22T18:00:54.195Z,28.10
2023-01-22T18:03:32.279Z,26.10
2023-01-22T18:06:03.840Z,25.60
2023-01-22T18:08:34.982Z,25.80
2023-01-22T18:11:12.354Z,26.50
2023-01-22T18:13:43.754Z,28.00
2023-01-22T18:16:20.920Z,26.30
2023-01-22T18:19:24.479Z,25.50
2023-01-22T18:22:08.427Z,24.90
2023-01-22T18:27:51.420Z,23.10
2023-01-22T18:30:41.341Z,25.80
2023-01-22T18:33:52.396Z,26.90
2023-01-22T18:36:43.376Z,25.40
2023-01-22T18:39:34.188Z,24.40
2023-01-22T18:42:05.539Z,22.50
2023-01-22T18:44:42.396Z,22.50
2023-01-22T18:47:26.707Z,20.90
2023-01-22T18:50:36.329Z,24.70
2023-01-22T18:53:25.961Z,22.60
2023-01-22T18:55:58.905Z,22.40
2023-01-22T18:58:32.195Z,25.00
2023-01-22T19:01:21.527Z,24.60
2023-01-22T19:04:03.521Z,24.10
2023-01-22T19:06:37.976Z,27.40
2023-01-22T19:09:08.743Z,25.40
2023-01-22T19:11:38.794Z,26.40
2023-01-22T19:14:11.905Z,25.10
2023-01-22T19:16:45.147Z,23.80
2023-01-22T19:25:48.108Z,21.40
2023-01-22T19:28:19.327Z,20.10
2023-01-22T19:30:48.039Z,21.00
2023-01-22T19:33:16.889Z,21.10
2023-01-22T19:35:54.859Z,23.30
2023-01-22T19:38:23.708Z,22.40
2023-01-22T19:40:54.270Z,24.50
2023-01-22T19:43:23.225Z,23.70
2023-01-22T19:45:56.451Z,25.40
2023-01-22T19:48:26.521Z,22.40
2023-01-22T19:50:58.558Z,21.60
2023-01-22T19:53:49.019Z,23.40
2023-01-22T19:56:24.787Z,20.20
2023-01-22T19:59:15.386Z,21.50
2023-01-22T20:01:48.833Z,22.20
2023-01-22T20:04:21.615Z,20.60
2023-01-22T20:06:55.165Z,23.30
2023-01-22T20:09:24.203Z,22.20
2023-01-22T20:11:56.450Z,23.50
2023-01-22T20:14:35.224Z,23.80
2023-01-22T20:17:04.029Z,28.70
2023-01-22T20:19:33.381Z,31.60
2023-01-22T20:22:05.130Z,27.70
2023-01-22T20:24:35.278Z,24.30
2023-01-22T20:27:04.722Z,27.40
2023-01-22T20:29:33.711Z,26.90
2023-01-22T20:32:03.677Z,23.70
2023-01-22T20:34:32.575Z,24.80
2023-01-22T20:37:04.032Z,21.80
2023-01-22T20:39:33.364Z,22.90
2023-01-22T20:42:02.712Z,26.20
2023-01-22T20:44:37.291Z,24.10
2023-01-22T20:47:19.857Z,24.20
2023-01-22T20:49:50.729Z,26.30
2023-01-22T20:52:22.017Z,25.90
2023-01-22T20:55:01.560Z,27.20
2023-01-22T20:57:36.634Z,24.90
2023-01-22T21:00:12.128Z,26.60
2023-01-22T21:02:42.572Z,24.20
2023-01-22T21:05:23.195Z,23.30
2023-01-22T21:07:52.219Z,24.30
2023-01-22T21:10:32.125Z,22.70
2023-01-22T21:13:22.335Z,24.60
2023-01-22T21:15:56.280Z,25.00
2023-01-22T21:18:32.633Z,22.60
2023-01-22T21:22:07.921Z,24.80
2023-01-22T21:25:14.249Z,25.50
2023-01-22T21:33:34.873Z,29.70
2023-01-22T21:36:05.244Z,25.40
2023-01-22T21:38:34.387Z,28.20
2023-01-22T21:41:08.987Z,30.80
2023-01-22T21:43:58.473Z,27.20
2023-01-22T21:46:27.540Z,26.60
2023-01-22T21:48:58.499Z,26.50
2023-01-22T21:52:04.807Z,24.30
2023-01-22T21:54:38.417Z,25.20
2023-01-22T21:57:06.541Z,24.90
2023-01-22T21:59:36.019Z,23.10
2023-01-22T22:02:03.474Z,23.80
2023-01-22T22:04:40.609Z,22.70
2023-01-22T22:07:08.099Z,23.30
2023-01-22T22:09:35.321Z,24.10
2023-01-22T22:12:05.677Z,22.20
2023-01-22T22:14:34.333Z,21.20
2023-01-22T22:17:08.482Z,24.40
2023-01-22T22:19:37.895Z,23.70
2023-01-22T22:22:07.960Z,23.90
2023-01-22T22:24:43.880Z,23.70
2023-01-22T22:27:10.983Z,25.50
2023-01-22T22:29:38.066Z,23.50
2023-01-22T22:32:05.190Z,26.60
2023-01-22T22:34:32.338Z,23.40
2023-01-22T22:37:02.992Z,23.70
2023-01-22T22:39:44.399Z,24.90
2023-01-22T22:42:11.811Z,22.50
2023-01-22T22:44:40.502Z,23.20
2023-01-22T22:47:11.046Z,22.10
2023-01-22T22:49:38.898Z,22.60
2023-01-22T22:52:06.190Z,22.30
2023-01-22T22:55:14.215Z,24.00
2023-01-22T22:57:43.262Z,23.20
2023-01-22T23:00:13.135Z,24.30
2023-01-22T23:02:43.830Z,25.50
2023-01-22T23:05:13.500Z,26.40
2023-01-22T23:07:40.401Z,24.90
2023-01-22T23:10:27.580Z,27.60
2023-01-22T23:12:56.125Z,25.50
2023-01-22T23:15:24.784Z,25.60
2023-01-22T23:17:52.441Z,26.80
2023-01-22T23:20:20.045Z,26.80
2023-01-22T23:22:46.809Z,27.80
2023-01-22T23:25:14.962Z,25.90
2023-01-22T23:27:41.622Z,25.40
2023-01-22T23:30:08.661Z,27.90
2023-01-22T23:32:35.710Z,25.50
2023-01-22T23:35:02.392Z,24.90
2023-01-22T23:37:28.992Z,25.80
2023-01-22T23:39:55.869Z,25.40
2023-01-22T23:42:22.997Z,27.50
2023-01-22T23:44:49.732Z,26.40
2023-01-22T23:47:16.531Z,28.40
2023-01-22T23:49:43.448Z,28.80
2023-01-22T23:52:10.265Z,25.70
2023-01-22T23:54:36.747Z,25.40
2023-01-22T23:57:03.461Z,25.50
2023-01-22T23:59:30.233Z,27.70
